sensor_id;sensor_type;location;lat;lon;timestamp;P1;durP1;ratioP1;P2;durP2;ratioP2
29172;SDS011;16223;47.966;-1.616;2024-02-26T00:00:15;1.15;;;1.0125;;
29172;SDS011;16223;47.966;-1.616;2024-02-26T00:01:15;2.925;;;0.8625;;
29172;SDS011;16223;47.966;-1.616;2024-02-26T00:02:15;2.3625;;;1.0125;;
29172;SDS011;16223;47.966;-1.616;2024-02-26T00:03:15;0.8500000000000001;;;0.8125;;
29172;SDS011;16223;47.966;-1.616;2024-02-26T00:04:15;1.625;;;1.4;;
29172;SDS011;16223;47.966;-1.616;2024-02-26T00:05:15;3.0625;;;1.2000000000000002;;
29172;SDS011;16223;47.966;-1.616;2024-02-26T00:06:15;3.95;;;2.15;;
29172;SDS011;16223;47.966;-1.616;2024-02-26T00:07:15;1.9749999999999999;;;0.875;;
29172;SDS011;16223;47.966;-1.616;2024-02-26T00:08:15;0.575;;;0.5625;;
29172;SDS011;16223;47.966;-1.616;2024-02-26T00:09:15;1.8749999999999998;;;0.9249999999999999;;
29172;SDS011;16223;47.966;-1.616;2024-02-26T00:10:15;1.5125;;;1.0125;;
29172;SDS011;16223;47.966;-1.616;2024-02-26T00:11:15;8.1375;;;1.175;;
29172;SDS011;16223;47.966;-1.616;2024-02-26T00:12:15;1.2875;;;0.6625000000000001;;
29172;SDS011;16223;47.966;-1.616;2024-02-26T00:13:15;1.7125;;;1.1624999999999999;;
29172;SDS011;16223;47.966;-1.616;2024-02-26T00:14:15;1.3375;;;1.1375;;
29172;SDS011;16223;47.966;-1.616;2024-02-26T00:15:15;1.6125;;;0.6875;;
29172;SDS011;16223;47.966;-1.616;2024-02-26T00:16:15;2.1375;;;1.275;;
29172;SDS011;16223;47.966;-1.616;2024-02-26T00:17:15;0.8375000000000001;;;0.7750000000000001;;
29172;SDS011;16223;47.966;-1.616;2024-02-26T00:18:15;4.9375;;;1.075;;
29172;SDS011;16223;47.966;-1.616;2024-02-26T00:19:15;1.1;;;0.7125;;
29172;SDS011;16223;47.966;-1.616;2024-02-26T00:20:15;3.5125;;;1.2125;;
29172;SDS011;16223;47.966;-1.616;2024-02-26T00:21:15;3.6999999999999997;;;1.475;;
29172;SDS011;16223;47.966;-1.616;2024-02-26T00:22:15;1.5875000000000001;;;0.9125000000000001;;
29172;SDS011;16223;47.966;-1.616;2024-02-26T00:23:15;2.0374999999999996;;;1.3250000000000002;;
29172;SDS011;16223;47.966;-1.616;2024-02-26T00:24:15;5.4;;;1.325;;
29172;SDS011;16223;47.966;-1.616;2024-02-26T00:25:15;7.675;;;1.525;;
29172;SDS011;16223;47.966;-1.616;2024-02-26T00:26:15;1.475;;;0.7625;;
29172;SDS011;16223;47.966;-1.616;2024-02-26T00:27:15;1.475;;;1.325;;
29172;SDS011;16223;47.966;-1.616;2024-02-26T00:28:15;3.125;;;1.025;;
29172;SDS011;16223;47.966;-1.616;2024-02-26T00:29:15;3.3;;;1.625;;
29172;SDS011;16223;47.966;-1.616;2024-02-26T00:30:15;0.8999999999999999;;;0.6625;;
29172;SDS011;16223;47.966;-1.616;2024-02-26T00:31:15;1.2625000000000002;;;0.8625;;
29172;SDS011;16223;47.966;-1.616;2024-02-26T00:32:15;1.7875;;;1.5;;
29172;SDS011;16223;47.966;-1.616;2024-02-26T00:33:16;4.25;;;1.625;;
29172;SDS011;16223;47.966;-1.616;2024-02-26T00:34:15;9.3;;;1.8125;;
29172;SDS011;16223;47.966;-1.616;2024-02-26T00:35:15;1.475;;;0.8375;;
29172;SDS011;16223;47.966;-1.616;2024-02-26T00:36:15;2.125;;;1.3125;;
29172;SDS011;16223;47.966;-1.616;2024-02-26T00:37:15;1.2125;;;1.15;;
29172;SDS011;16223;47.966;-1.616;2024-02-26T00:38:15;1.5499999999999998;;;1.1625;;
29172;SDS011;16223;47.966;-1.616;2024-02-26T00:39:15;4.275;;;0.8;;
29172;SDS011;16223;47.966;-1.616;2024-02-26T00:40:15;4.862500000000001;;;2.2750000000000004;;
29172;SDS011;16223;47.966;-1.616;2024-02-26T00:41:15;1.9625;;;0.8375;;
29172;SDS011;16223;47.966;-1.616;2024-02-26T00:42:15;1.375;;;1.0625;;
29172;SDS011;16223;47.966;-1.616;2024-02-26T00:43:15;0.9375;;;0.7749999999999999;;
29172;SDS011;16223;47.966;-1.616;2024-02-26T00:44:15;4.4625;;;1.0875;;
29172;SDS011;16223;47.966;-1.616;2024-02-26T00:45:15;14.4375;;;1.7000000000000002;;
29172;SDS011;16223;47.966;-1.616;2024-02-26T00:46:15;0.4375;;;0.4375;;
29172;SDS011;16223;47.966;-1.616;2024-02-26T00:47:15;2.3625;;;2.0;;
29172;SDS011;16223;47.966;-1.616;2024-02-26T00:48:15;0.55;;;0.55;;
29172;SDS011;16223;47.966;-1.616;2024-02-26T00:49:15;0.9375;;;0.9125000000000001;;
29172;SDS011;16223;47.966;-1.616;2024-02-26T00:50:15;1.325;;;0.975;;
29172;SDS011;16223;47.966;-1.616;2024-02-26T00:51:15;2.3625;;;1.425;;
29172;SDS011;16223;47.966;-1.616;2024-02-26T00:52:15;3.6875;;;2.1;;
29172;SDS011;16223;47.966;-1.616;2024-02-26T00:53:15;0.9625;;;0.6875;;
29172;SDS011;16223;47.966;-1.616;2024-02-26T00:54:15;3.625;;;1.1124999999999998;;
29172;SDS011;16223;47.966;-1.616;2024-02-26T00:55:15;0.625;;;0.625;;
29172;SDS011;16223;47.966;-1.616;2024-02-26T00:56:15;0.7;;;0.7;;
29172;SDS011;16223;47.966;-1.616;2024-02-26T00:57:15;12.537500000000001;;;1.9874999999999998;;
29172;SDS011;16223;47.966;-1.616;2024-02-26T00:58:15;1.975;;;1.6750000000000003;;
29172;SDS011;16223;47.966;-1.616;2024-02-26T00:59:15;0.75;;;0.75;;
29172;SDS011;16223;47.966;-1.616;2024-02-26T01:00:15;0.8625;;;0.7125;;
29172;SDS011;16223;47.966;-1.616;2024-02-26T01:01:15;0.325;;;0.3125;;
29172;SDS011;16223;47.966;-1.616;2024-02-26T01:02:15;1.4375;;;1.1125;;
29172;SDS011;16223;47.966;-1.616;2024-02-26T01:03:15;3.075;;;1.45;;
29172;SDS011;16223;47.966;-1.616;2024-02-26T01:04:15;3.7874999999999996;;;1.7375;;
29172;SDS011;16223;47.966;-1.616;2024-02-26T01:05:15;2.8000000000000003;;;0.8875;;
29172;SDS011;16223;47.966;-1.616;2024-02-26T01:06:15;1.9875;;;1.0625;;
29172;SDS011;16223;47.966;-1.616;2024-02-26T01:07:15;0.675;;;0.6375;;
29172;SDS011;16223;47.966;-1.616;2024-02-26T01:08:15;0.9750000000000001;;;0.725;;
29172;SDS011;16223;47.966;-1.616;2024-02-26T01:09:15;0.8500000000000001;;;0.7875;;
29172;SDS011;16223;47.966;-1.616;2024-02-26T01:10:15;1.1749999999999998;;;0.6625;;
29172;SDS011;16223;47.966;-1.616;2024-02-26T01:11:15;0.6;;;0.5875;;
29172;SDS011;16223;47.966;-1.616;2024-02-26T01:12:15;5.387499999999999;;;1.7375;;
29172;SDS011;16223;47.966;-1.616;2024-02-26T01:13:15;0.8875;;;0.7499999999999999;;
29172;SDS011;16223;47.966;-1.616;2024-02-26T01:14:15;0.575;;;0.55;;
29172;SDS011;16223;47.966;-1.616;2024-02-26T01:15:15;1.7625;;;1.5125;;
29172;SDS011;16223;47.966;-1.616;2024-02-26T01:16:15;1.2625;;;0.8625;;
29172;SDS011;16223;47.966;-1.616;2024-02-26T01:17:15;1.7750000000000001;;;1.65;;
29172;SDS011;16223;47.966;-1.616;2024-02-26T01:18:15;1.95;;;0.8;;
29172;SDS011;16223;47.966;-1.616;2024-02-26T01:19:15;1.1749999999999998;;;0.9125;;
29172;SDS011;16223;47.966;-1.616;2024-02-26T01:20:15;0.7124999999999999;;;0.6000000000000001;;
29172;SDS011;16223;47.966;-1.616;2024-02-26T01:21:15;5.8625;;;0.7749999999999999;;
29172;SDS011;16223;47.966;-1.616;2024-02-26T01:22:15;1.2625;;;0.8625;;
29172;SDS011;16223;47.966;-1.616;2024-02-26T01:23:15;2.2125;;;1.1;;
29172;SDS011;16223;47.966;-1.616;2024-02-26T01:24:15;3.9625;;;1.0625;;
29172;SDS011;16223;47.966;-1.616;2024-02-26T01:25:15;1.0125000000000002;;;0.75;;
29172;SDS011;16223;47.966;-1.616;2024-02-26T01:26:15;1.0;;;0.5625;;
29172;SDS011;16223;47.966;-1.616;2024-02-26T01:27:15;10.5125;;;1.225;;
29172;SDS011;16223;47.966;-1.616;2024-02-26T01:28:15;2.45;;;0.9625;;
29172;SDS011;16223;47.966;-1.616;2024-02-26T01:29:15;1.575;;;0.7749999999999999;;
29172;SDS011;16223;47.966;-1.616;2024-02-26T01:30:15;4.2;;;1.4125;;
29172;SDS011;16223;47.966;-1.616;2024-02-26T01:31:15;0.6;;;0.5875;;
29172;SDS011;16223;47.966;-1.616;2024-02-26T01:32:15;8.350000000000001;;;0.8125;;
29172;SDS011;16223;47.966;-1.616;2024-02-26T01:33:15;0.7;;;0.675;;
29172;SDS011;16223;47.966;-1.616;2024-02-26T01:34:15;1.8250000000000002;;;1.675;;
29172;SDS011;16223;47.966;-1.616;2024-02-26T01:35:15;1.9874999999999998;;;1.35;;
29172;SDS011;16223;47.966;-1.616;2024-02-26T01:36:15;1.7;;;1.575;;
29172;SDS011;16223;47.966;-1.616;2024-02-26T01:37:15;1.6124999999999998;;;1.525;;
29172;SDS011;16223;47.966;-1.616;2024-02-26T01:38:15;2.9375;;;1.6124999999999998;;
29172;SDS011;16223;47.966;-1.616;2024-02-26T01:39:15;8.725;;;1.95;;
29172;SDS011;16223;47.966;-1.616;2024-02-26T01:40:15;6.262499999999999;;;2.25;;
29172;SDS011;16223;47.966;-1.616;2024-02-26T01:41:15;9.25;;;4.8625;;
29172;SDS011;16223;47.966;-1.616;2024-02-26T01:42:15;7.5625;;;5.55;;
29172;SDS011;16223;47.966;-1.616;2024-02-26T01:43:15;21.325;;;6.5375;;
29172;SDS011;16223;47.966;-1.616;2024-02-26T01:44:15;7.325;;;5.325;;
29172;SDS011;16223;47.966;-1.616;2024-02-26T01:45:16;12.4;;;7.6875;;
29172;SDS011;16223;47.966;-1.616;2024-02-26T01:46:15;6.7875;;;5.0625;;
29172;SDS011;16223;47.966;-1.616;2024-02-26T01:47:15;9.2375;;;6.875;;
29172;SDS011;16223;47.966;-1.616;2024-02-26T01:48:15;6.15;;;5.3125;;
29172;SDS011;16223;47.966;-1.616;2024-02-26T01:49:15;5.7875000000000005;;;5.175000000000001;;
29172;SDS011;16223;47.966;-1.616;2024-02-26T01:50:15;5.475;;;4.7875;;
29172;SDS011;16223;47.966;-1.616;2024-02-26T01:51:15;4.4875;;;2.8875;;
29172;SDS011;16223;47.966;-1.616;2024-02-26T01:52:15;3.125;;;1.9999999999999998;;
29172;SDS011;16223;47.966;-1.616;2024-02-26T01:53:15;1.2875;;;1.2375;;
29172;SDS011;16223;47.966;-1.616;2024-02-26T01:54:15;2.1125;;;1.1375000000000002;;
29172;SDS011;16223;47.966;-1.616;2024-02-26T01:55:15;2.325;;;2.0;;
29172;SDS011;16223;47.966;-1.616;2024-02-26T01:56:15;32.825;;;4.0;;
29172;SDS011;16223;47.966;-1.616;2024-02-26T01:57:15;8.625;;;1.8124999999999998;;
29172;SDS011;16223;47.966;-1.616;2024-02-26T01:58:15;2.225;;;1.7000000000000002;;
29172;SDS011;16223;47.966;-1.616;2024-02-26T01:59:15;6.025;;;3.9124999999999996;;
29172;SDS011;16223;47.966;-1.616;2024-02-26T02:00:15;2.3625;;;2.1875;;
29172;SDS011;16223;47.966;-1.616;2024-02-26T02:01:15;3.4749999999999996;;;2.8625;;
29172;SDS011;16223;47.966;-1.616;2024-02-26T02:02:15;4.3999999999999995;;;3.1625;;
29172;SDS011;16223;47.966;-1.616;2024-02-26T02:03:15;4.0;;;2.925;;
29172;SDS011;16223;47.966;-1.616;2024-02-26T02:04:15;2.95;;;2.5125;;
29172;SDS011;16223;47.966;-1.616;2024-02-26T02:05:15;1.9;;;1.75;;
29172;SDS011;16223;47.966;-1.616;2024-02-26T02:06:15;3.0;;;1.5625;;
29172;SDS011;16223;47.966;-1.616;2024-02-26T02:07:15;3.2249999999999996;;;1.7374999999999998;;
29172;SDS011;16223;47.966;-1.616;2024-02-26T02:08:15;8.200000000000001;;;1.1;;
29172;SDS011;16223;47.966;-1.616;2024-02-26T02:09:15;1.5;;;0.8500000000000001;;
29172;SDS011;16223;47.966;-1.616;2024-02-26T02:10:15;0.8;;;0.4625;;
29172;SDS011;16223;47.966;-1.616;2024-02-26T02:11:15;3.7249999999999996;;;1.075;;
29172;SDS011;16223;47.966;-1.616;2024-02-26T02:12:15;1.625;;;0.5625;;
29172;SDS011;16223;47.966;-1.616;2024-02-26T02:13:15;0.9125000000000001;;;0.8625;;
29172;SDS011;16223;47.966;-1.616;2024-02-26T02:14:15;0.6375;;;0.6;;
29172;SDS011;16223;47.966;-1.616;2024-02-26T02:15:15;1.1624999999999999;;;0.8125;;
29172;SDS011;16223;47.966;-1.616;2024-02-26T02:16:15;0.875;;;0.8500000000000001;;
29172;SDS011;16223;47.966;-1.616;2024-02-26T02:17:15;9.4125;;;0.9;;
29172;SDS011;16223;47.966;-1.616;2024-02-26T02:18:15;2.3249999999999997;;;1.1125;;
29172;SDS011;16223;47.966;-1.616;2024-02-26T02:19:15;1.525;;;1.2375;;
29172;SDS011;16223;47.966;-1.616;2024-02-26T02:20:15;1.2874999999999999;;;1.05;;
29172;SDS011;16223;47.966;-1.616;2024-02-26T02:21:15;0.9500000000000001;;;0.9;;
29172;SDS011;16223;47.966;-1.616;2024-02-26T02:22:15;1.05;;;1.025;;
29172;SDS011;16223;47.966;-1.616;2024-02-26T02:23:15;1.0750000000000002;;;1.025;;
29172;SDS011;16223;47.966;-1.616;2024-02-26T02:24:15;1.6;;;1.2125;;
29172;SDS011;16223;47.966;-1.616;2024-02-26T02:25:15;1.9875;;;1.2125;;
29172;SDS011;16223;47.966;-1.616;2024-02-26T02:26:15;3.4875;;;1.9;;
29172;SDS011;16223;47.966;-1.616;2024-02-26T02:27:15;6.175000000000001;;;1.9125;;
29172;SDS011;16223;47.966;-1.616;2024-02-26T02:28:15;0.8;;;0.7375;;
29172;SDS011;16223;47.966;-1.616;2024-02-26T02:29:15;1.4125;;;1.3;;
29172;SDS011;16223;47.966;-1.616;2024-02-26T02:30:15;1.7874999999999999;;;1.5875;;
29172;SDS011;16223;47.966;-1.616;2024-02-26T02:31:15;2.3875;;;0.8;;
29172;SDS011;16223;47.966;-1.616;2024-02-26T02:32:15;9.7125;;;2.4750000000000005;;
29172;SDS011;16223;47.966;-1.616;2024-02-26T02:33:15;0.55;;;0.55;;
29172;SDS011;16223;47.966;-1.616;2024-02-26T02:34:15;2.5374999999999996;;;1.3375;;
29172;SDS011;16223;47.966;-1.616;2024-02-26T02:35:15;4.4;;;0.475;;
29172;SDS011;16223;47.966;-1.616;2024-02-26T02:36:15;1.55;;;0.7;;
29172;SDS011;16223;47.966;-1.616;2024-02-26T02:37:15;3.7;;;1.8499999999999999;;
29172;SDS011;16223;47.966;-1.616;2024-02-26T02:38:15;8.4375;;;1.875;;
29172;SDS011;16223;47.966;-1.616;2024-02-26T02:39:15;1.4999999999999998;;;0.9624999999999999;;
29172;SDS011;16223;47.966;-1.616;2024-02-26T02:40:15;1.2;;;1.05;;
29172;SDS011;16223;47.966;-1.616;2024-02-26T02:41:15;1.7;;;1.3875;;
29172;SDS011;16223;47.966;-1.616;2024-02-26T02:42:15;0.75;;;0.75;;
29172;SDS011;16223;47.966;-1.616;2024-02-26T02:43:15;0.5;;;0.5;;
29172;SDS011;16223;47.966;-1.616;2024-02-26T02:44:15;19.8375;;;1.8624999999999998;;
29172;SDS011;16223;47.966;-1.616;2024-02-26T02:45:15;2.075;;;1.9500000000000002;;
29172;SDS011;16223;47.966;-1.616;2024-02-26T02:46:15;6.4875;;;1.5;;
29172;SDS011;16223;47.966;-1.616;2024-02-26T02:47:15;1.1875;;;0.975;;
29172;SDS011;16223;47.966;-1.616;2024-02-26T02:48:16;5.737500000000001;;;1.2125;;
29172;SDS011;16223;47.966;-1.616;2024-02-26T02:49:15;1.6124999999999998;;;1.4625;;
29172;SDS011;16223;47.966;-1.616;2024-02-26T02:50:15;1.8125;;;1.3625;;
29172;SDS011;16223;47.966;-1.616;2024-02-26T02:51:15;9.8125;;;2.0999999999999996;;
29172;SDS011;16223;47.966;-1.616;2024-02-26T02:52:15;1.75;;;0.9874999999999999;;
29172;SDS011;16223;47.966;-1.616;2024-02-26T02:53:15;5.1000000000000005;;;2.3375;;
29172;SDS011;16223;47.966;-1.616;2024-02-26T02:54:15;3.125;;;1.5125;;
29172;SDS011;16223;47.966;-1.616;2024-02-26T02:55:16;14.175;;;1.2125;;
29172;SDS011;16223;47.966;-1.616;2024-02-26T02:56:15;3.1;;;1.9125;;
29172;SDS011;16223;47.966;-1.616;2024-02-26T02:57:15;1.0125;;;0.8624999999999999;;
29172;SDS011;16223;47.966;-1.616;2024-02-26T02:58:15;1.375;;;1.2625;;
29172;SDS011;16223;47.966;-1.616;2024-02-26T02:59:15;3.4875000000000003;;;1.9125;;
29172;SDS011;16223;47.966;-1.616;2024-02-26T03:00:15;1.325;;;1.1625;;
29172;SDS011;16223;47.966;-1.616;2024-02-26T03:01:15;1.4875;;;0.9500000000000002;;
29172;SDS011;16223;47.966;-1.616;2024-02-26T03:02:15;2.05;;;0.9125;;
29172;SDS011;16223;47.966;-1.616;2024-02-26T03:03:15;4.3375;;;2.0875;;
29172;SDS011;16223;47.966;-1.616;2024-02-26T03:04:15;1.5125;;;1.3875;;
29172;SDS011;16223;47.966;-1.616;2024-02-26T03:05:15;2.2125000000000004;;;1.8125;;
29172;SDS011;16223;47.966;-1.616;2024-02-26T03:06:15;7.8375;;;2.6624999999999996;;
29172;SDS011;16223;47.966;-1.616;2024-02-26T03:07:15;3.95;;;1.3624999999999998;;
29172;SDS011;16223;47.966;-1.616;2024-02-26T03:08:15;3.5875;;;3.175;;
29172;SDS011;16223;47.966;-1.616;2024-02-26T03:09:15;1.5750000000000002;;;1.325;;
29172;SDS011;16223;47.966;-1.616;2024-02-26T03:10:15;4.5125;;;2.5625;;
29172;SDS011;16223;47.966;-1.616;2024-02-26T03:11:15;4.5625;;;2.875;;
29172;SDS011;16223;47.966;-1.616;2024-02-26T03:12:15;5.275;;;3.075;;
29172;SDS011;16223;47.966;-1.616;2024-02-26T03:13:15;9.8875;;;2.35;;
29172;SDS011;16223;47.966;-1.616;2024-02-26T03:14:15;5.2625;;;1.9999999999999998;;
29172;SDS011;16223;47.966;-1.616;2024-02-26T03:15:15;5.2375;;;2.3249999999999997;;
29172;SDS011;16223;47.966;-1.616;2024-02-26T03:16:16;1.5875;;;1.4875;;
29172;SDS011;16223;47.966;-1.616;2024-02-26T03:17:16;1.6;;;1.375;;
29172;SDS011;16223;47.966;-1.616;2024-02-26T03:18:15;2.425;;;1.7125;;
29172;SDS011;16223;47.966;-1.616;2024-02-26T03:19:15;12.425;;;2.8625000000000003;;
29172;SDS011;16223;47.966;-1.616;2024-02-26T03:20:15;7.2125;;;3.6500000000000004;;
29172;SDS011;16223;47.966;-1.616;2024-02-26T03:21:15;5.8875;;;2.6125;;
29172;SDS011;16223;47.966;-1.616;2024-02-26T03:22:15;3.9375;;;2.6375;;
29172;SDS011;16223;47.966;-1.616;2024-02-26T03:23:15;7.737499999999999;;;1.9875;;
29172;SDS011;16223;47.966;-1.616;2024-02-26T03:24:15;5.625;;;2.5125;;
29172;SDS011;16223;47.966;-1.616;2024-02-26T03:25:15;6.425000000000001;;;3.3125;;
29172;SDS011;16223;47.966;-1.616;2024-02-26T03:26:15;4.4625;;;2.3875;;
29172;SDS011;16223;47.966;-1.616;2024-02-26T03:27:15;3.7625;;;2.9625;;
29172;SDS011;16223;47.966;-1.616;2024-02-26T03:28:15;4.35;;;2.525;;
29172;SDS011;16223;47.966;-1.616;2024-02-26T03:29:15;4.4875;;;2.175;;
29172;SDS011;16223;47.966;-1.616;2024-02-26T03:30:15;3.95;;;3.525;;
29172;SDS011;16223;47.966;-1.616;2024-02-26T03:31:15;8.75;;;3.5125;;
29172;SDS011;16223;47.966;-1.616;2024-02-26T03:32:15;13.475;;;2.425;;
29172;SDS011;16223;47.966;-1.616;2024-02-26T03:33:15;7.8375;;;4.5625;;
29172;SDS011;16223;47.966;-1.616;2024-02-26T03:34:15;4.375;;;2.7249999999999996;;
29172;SDS011;16223;47.966;-1.616;2024-02-26T03:35:15;7.975;;;4.1;;
29172;SDS011;16223;47.966;-1.616;2024-02-26T03:36:15;7.7124999999999995;;;3.3875;;
29172;SDS011;16223;47.966;-1.616;2024-02-26T03:37:15;4.5375;;;2.9125;;
29172;SDS011;16223;47.966;-1.616;2024-02-26T03:38:15;3.0375;;;2.8;;
29172;SDS011;16223;47.966;-1.616;2024-02-26T03:39:15;6.449999999999999;;;3.0875;;
29172;SDS011;16223;47.966;-1.616;2024-02-26T03:40:15;4.8625;;;2.7375;;
29172;SDS011;16223;47.966;-1.616;2024-02-26T03:41:15;8.7375;;;3.3875;;
29172;SDS011;16223;47.966;-1.616;2024-02-26T03:42:15;11.587499999999999;;;3.025;;
29172;SDS011;16223;47.966;-1.616;2024-02-26T03:43:15;6.475;;;3.7875;;
29172;SDS011;16223;47.966;-1.616;2024-02-26T03:44:15;7.375;;;4.3;;
29172;SDS011;16223;47.966;-1.616;2024-02-26T03:45:15;4.575;;;2.85;;
29172;SDS011;16223;47.966;-1.616;2024-02-26T03:46:15;10.9;;;3.8250000000000006;;
29172;SDS011;16223;47.966;-1.616;2024-02-26T03:47:15;5.6625;;;3.4375;;
29172;SDS011;16223;47.966;-1.616;2024-02-26T03:48:15;36.9625;;;4.7124999999999995;;
29172;SDS011;16223;47.966;-1.616;2024-02-26T03:49:16;5.1375;;;3.075;;
29172;SDS011;16223;47.966;-1.616;2024-02-26T03:50:15;4.2625;;;3.7375000000000003;;
29172;SDS011;16223;47.966;-1.616;2024-02-26T03:51:15;2.5875000000000004;;;1.95;;
29172;SDS011;16223;47.966;-1.616;2024-02-26T03:52:15;13.525000000000002;;;4.4125;;
29172;SDS011;16223;47.966;-1.616;2024-02-26T03:53:15;6.6875;;;3.6625;;
29172;SDS011;16223;47.966;-1.616;2024-02-26T03:54:15;16.7375;;;4.475;;
29172;SDS011;16223;47.966;-1.616;2024-02-26T03:55:15;8.8875;;;4.1625;;
29172;SDS011;16223;47.966;-1.616;2024-02-26T03:56:15;4.324999999999999;;;3.175;;
29172;SDS011;16223;47.966;-1.616;2024-02-26T03:57:15;3.9749999999999996;;;2.3125;;
29172;SDS011;16223;47.966;-1.616;2024-02-26T03:58:15;5.725;;;3.55;;
29172;SDS011;16223;47.966;-1.616;2024-02-26T03:59:15;7.4;;;3.8125;;
29172;SDS011;16223;47.966;-1.616;2024-02-26T04:00:15;6.1375;;;3.3625000000000003;;
29172;SDS011;16223;47.966;-1.616;2024-02-26T04:01:15;5.675000000000001;;;4.275;;
29172;SDS011;16223;47.966;-1.616;2024-02-26T04:02:16;4.775;;;3.3000000000000003;;
29172;SDS011;16223;47.966;-1.616;2024-02-26T04:03:15;2.45;;;2.1875;;
29172;SDS011;16223;47.966;-1.616;2024-02-26T04:04:15;4.3875;;;3.425;;
29172;SDS011;16223;47.966;-1.616;2024-02-26T04:05:15;7.9125;;;4.7875;;
29172;SDS011;16223;47.966;-1.616;2024-02-26T04:06:15;21.175;;;5.2375;;
29172;SDS011;16223;47.966;-1.616;2024-02-26T04:07:15;7.0874999999999995;;;3.4000000000000004;;
29172;SDS011;16223;47.966;-1.616;2024-02-26T04:08:15;8.325;;;3.9499999999999997;;
29172;SDS011;16223;47.966;-1.616;2024-02-26T04:09:15;10.675;;;5.487500000000001;;
29172;SDS011;16223;47.966;-1.616;2024-02-26T04:10:15;9.125;;;4.862500000000001;;
29172;SDS011;16223;47.966;-1.616;2024-02-26T04:11:15;9.375;;;4.15;;
29172;SDS011;16223;47.966;-1.616;2024-02-26T04:12:15;11.2125;;;3.8375;;
29172;SDS011;16223;47.966;-1.616;2024-02-26T04:13:15;11.1375;;;4.8625;;
29172;SDS011;16223;47.966;-1.616;2024-02-26T04:14:15;23.787499999999998;;;3.3125;;
29172;SDS011;16223;47.966;-1.616;2024-02-26T04:15:15;5.800000000000001;;;2.95;;
29172;SDS011;16223;47.966;-1.616;2024-02-26T04:16:15;4.975;;;4.225;;
29172;SDS011;16223;47.966;-1.616;2024-02-26T04:17:15;5.987500000000001;;;4.325;;
29172;SDS011;16223;47.966;-1.616;2024-02-26T04:18:15;8.6625;;;5.800000000000001;;
29172;SDS011;16223;47.966;-1.616;2024-02-26T04:19:15;8.649999999999999;;;4.2125;;
29172;SDS011;16223;47.966;-1.616;2024-02-26T04:20:15;8.9;;;5.5375;;
29172;SDS011;16223;47.966;-1.616;2024-02-26T04:21:15;17.1875;;;5.525;;
29172;SDS011;16223;47.966;-1.616;2024-02-26T04:22:15;9.5375;;;4.95;;
29172;SDS011;16223;47.966;-1.616;2024-02-26T04:23:15;9.7;;;3.325;;
29172;SDS011;16223;47.966;-1.616;2024-02-26T04:24:15;12.45;;;4.824999999999999;;
29172;SDS011;16223;47.966;-1.616;2024-02-26T04:25:15;4.55;;;3.8375;;
29172;SDS011;16223;47.966;-1.616;2024-02-26T04:26:15;6.5625;;;5.175000000000001;;
29172;SDS011;16223;47.966;-1.616;2024-02-26T04:27:15;9.025;;;4.5875;;
29172;SDS011;16223;47.966;-1.616;2024-02-26T04:28:15;6.737500000000001;;;4.975;;
29172;SDS011;16223;47.966;-1.616;2024-02-26T04:29:15;12.8;;;5.487500000000001;;
29172;SDS011;16223;47.966;-1.616;2024-02-26T04:30:15;11.2375;;;5.0375;;
29172;SDS011;16223;47.966;-1.616;2024-02-26T04:31:15;19.387500000000003;;;6.1625000000000005;;
29172;SDS011;16223;47.966;-1.616;2024-02-26T04:32:15;8.825;;;4.5125;;
29172;SDS011;16223;47.966;-1.616;2024-02-26T04:33:15;7.125;;;3.3874999999999997;;
29172;SDS011;16223;47.966;-1.616;2024-02-26T04:34:15;5.8875;;;5.1875;;
29172;SDS011;16223;47.966;-1.616;2024-02-26T04:35:15;8.325;;;4.2250000000000005;;
29172;SDS011;16223;47.966;-1.616;2024-02-26T04:36:15;19.462500000000002;;;7.7625;;
29172;SDS011;16223;47.966;-1.616;2024-02-26T04:37:15;8.649999999999999;;;4.5;;
29172;SDS011;16223;47.966;-1.616;2024-02-26T04:38:15;6.0125;;;4.55;;
29172;SDS011;16223;47.966;-1.616;2024-02-26T04:39:15;7.0125;;;3.6375;;
29172;SDS011;16223;47.966;-1.616;2024-02-26T04:40:15;7.5375;;;2.7249999999999996;;
29172;SDS011;16223;47.966;-1.616;2024-02-26T04:41:15;9.975;;;5.550000000000001;;
29172;SDS011;16223;47.966;-1.616;2024-02-26T04:42:15;8.8125;;;5.887499999999999;;
29172;SDS011;16223;47.966;-1.616;2024-02-26T04:43:15;3.575;;;3.3;;
29172;SDS011;16223;47.966;-1.616;2024-02-26T04:44:15;3.875;;;3.0625;;
29172;SDS011;16223;47.966;-1.616;2024-02-26T04:45:15;4.9375;;;2.4375;;
29172;SDS011;16223;47.966;-1.616;2024-02-26T04:46:15;7.25;;;4.4125;;
29172;SDS011;16223;47.966;-1.616;2024-02-26T04:47:15;11.75;;;3.825;;
29172;SDS011;16223;47.966;-1.616;2024-02-26T04:48:15;6.9625;;;2.9749999999999996;;
29172;SDS011;16223;47.966;-1.616;2024-02-26T04:49:15;10.774999999999999;;;5.9;;
29172;SDS011;16223;47.966;-1.616;2024-02-26T04:50:15;5.525;;;3.9875000000000003;;
29172;SDS011;16223;47.966;-1.616;2024-02-26T04:51:15;6.5;;;3.8125;;
29172;SDS011;16223;47.966;-1.616;2024-02-26T04:52:15;4.25;;;3.2125000000000004;;
29172;SDS011;16223;47.966;-1.616;2024-02-26T04:53:15;5.625;;;2.825;;
29172;SDS011;16223;47.966;-1.616;2024-02-26T04:54:15;2.575;;;1.65;;
29172;SDS011;16223;47.966;-1.616;2024-02-26T04:55:15;4.375;;;3.2;;
29172;SDS011;16223;47.966;-1.616;2024-02-26T04:56:15;5.8375;;;4.1125;;
29172;SDS011;16223;47.966;-1.616;2024-02-26T04:57:15;4.1875;;;2.475;;
29172;SDS011;16223;47.966;-1.616;2024-02-26T04:58:15;6.2;;;1.4249999999999998;;
29172;SDS011;16223;47.966;-1.616;2024-02-26T04:59:15;2.2125;;;2.05;;
29172;SDS011;16223;47.966;-1.616;2024-02-26T05:00:15;1.8625000000000003;;;1.5999999999999999;;
29172;SDS011;16223;47.966;-1.616;2024-02-26T05:01:15;6.3375;;;4.875;;
29172;SDS011;16223;47.966;-1.616;2024-02-26T05:02:15;1.75;;;1.5375;;
29172;SDS011;16223;47.966;-1.616;2024-02-26T05:03:15;1.8000000000000003;;;1.7374999999999998;;
29172;SDS011;16223;47.966;-1.616;2024-02-26T05:04:15;3.3625;;;2.5125;;
29172;SDS011;16223;47.966;-1.616;2024-02-26T05:05:15;5.1;;;2.7625;;
29172;SDS011;16223;47.966;-1.616;2024-02-26T05:06:15;4.6125;;;2.8375;;
29172;SDS011;16223;47.966;-1.616;2024-02-26T05:07:15;2.5;;;1.8;;
29172;SDS011;16223;47.966;-1.616;2024-02-26T05:08:15;2.8375;;;2.5125;;
29172;SDS011;16223;47.966;-1.616;2024-02-26T05:09:15;0.7875;;;0.7124999999999999;;
29172;SDS011;16223;47.966;-1.616;2024-02-26T05:10:15;4.6875;;;3.4375;;
29172;SDS011;16223;47.966;-1.616;2024-02-26T05:11:15;3.225;;;2.9;;
29172;SDS011;16223;47.966;-1.616;2024-02-26T05:12:15;1.7375;;;1.4625;;
29172;SDS011;16223;47.966;-1.616;2024-02-26T05:13:15;5.800000000000001;;;3.675;;
29172;SDS011;16223;47.966;-1.616;2024-02-26T05:14:15;6.85;;;3.3625;;
29172;SDS011;16223;47.966;-1.616;2024-02-26T05:15:15;4.1625;;;3.1375;;
29172;SDS011;16223;47.966;-1.616;2024-02-26T05:16:15;5.2125;;;4.1625;;
29172;SDS011;16223;47.966;-1.616;2024-02-26T05:17:15;3.9499999999999997;;;3.4000000000000004;;